sensor_id;sensor_type;location;lat;lon;timestamp;P1;durP1;ratioP1;P2;durP2;ratioP2
31347;SDS011;21711;49.708;18.568;2024-03-17T00:00:37;7.65;;;3.38;;
31347;SDS011;21711;49.708;18.568;2024-03-17T00:03:06;14.82;;;4.72;;
31347;SDS011;21711;49.708;18.568;2024-03-17T00:05:36;8.55;;;3.85;;
31347;SDS011;21711;49.708;18.568;2024-03-17T00:08:03;9.77;;;4.35;;
31347;SDS011;21711;49.708;18.568;2024-03-17T00:10:33;12.82;;;4.93;;
31347;SDS011;21711;49.708;18.568;2024-03-17T00:13:00;9.93;;;3.33;;
31347;SDS011;21711;49.708;18.568;2024-03-17T00:15:26;10.50;;;4.10;;
31347;SDS011;21711;49.708;18.568;2024-03-17T00:17:53;12.60;;;4.03;;
31347;SDS011;21711;49.708;18.568;2024-03-17T00:20:20;9.68;;;3.40;;
31347;SDS011;21711;49.708;18.568;2024-03-17T00:22:47;9.70;;;3.83;;
31347;SDS011;21711;49.708;18.568;2024-03-17T00:25:15;7.85;;;3.58;;
31347;SDS011;21711;49.708;18.568;2024-03-17T00:27:41;10.35;;;3.63;;
31347;SDS011;21711;49.708;18.568;2024-03-17T00:30:10;8.68;;;3.72;;
31347;SDS011;21711;49.708;18.568;2024-03-17T00:35:08;13.15;;;3.58;;
31347;SDS011;21711;49.708;18.568;2024-03-17T00:37:39;9.88;;;3.05;;
31347;SDS011;21711;49.708;18.568;2024-03-17T00:40:06;9.00;;;3.40;;
31347;SDS011;21711;49.708;18.568;2024-03-17T00:42:32;7.05;;;2.90;;
31347;SDS011;21711;49.708;18.568;2024-03-17T00:44:59;9.60;;;3.03;;
31347;SDS011;21711;49.708;18.568;2024-03-17T00:47:25;10.65;;;4.22;;
31347;SDS011;21711;49.708;18.568;2024-03-17T00:49:51;10.00;;;3.08;;
31347;SDS011;21711;49.708;18.568;2024-03-17T00:52:18;9.77;;;3.67;;
31347;SDS011;21711;49.708;18.568;2024-03-17T00:54:46;7.68;;;3.33;;
31347;SDS011;21711;49.708;18.568;2024-03-17T00:57:13;12.23;;;3.30;;
31347;SDS011;21711;49.708;18.568;2024-03-17T00:59:44;15.13;;;3.15;;
31347;SDS011;21711;49.708;18.568;2024-03-17T01:02:14;6.45;;;3.17;;
31347;SDS011;21711;49.708;18.568;2024-03-17T01:04:44;13.35;;;4.70;;
31347;SDS011;21711;49.708;18.568;2024-03-17T01:07:11;9.60;;;3.10;;
31347;SDS011;21711;49.708;18.568;2024-03-17T01:09:38;8.35;;;3.33;;
31347;SDS011;21711;49.708;18.568;2024-03-17T01:12:05;12.07;;;3.65;;
31347;SDS011;21711;49.708;18.568;2024-03-17T01:14:31;11.05;;;2.88;;
31347;SDS011;21711;49.708;18.568;2024-03-17T01:16:59;8.90;;;3.22;;
31347;SDS011;21711;49.708;18.568;2024-03-17T01:19:26;6.38;;;2.63;;
31347;SDS011;21711;49.708;18.568;2024-03-17T01:21:52;10.15;;;4.05;;
31347;SDS011;21711;49.708;18.568;2024-03-17T01:24:19;9.85;;;2.97;;
31347;SDS011;21711;49.708;18.568;2024-03-17T01:26:45;10.23;;;2.80;;
31347;SDS011;21711;49.708;18.568;2024-03-17T01:29:12;15.07;;;3.40;;
31347;SDS011;21711;49.708;18.568;2024-03-17T01:31:39;8.63;;;2.92;;
31347;SDS011;21711;49.708;18.568;2024-03-17T01:34:05;9.20;;;3.20;;
31347;SDS011;21711;49.708;18.568;2024-03-17T01:36:31;8.95;;;2.95;;
31347;SDS011;21711;49.708;18.568;2024-03-17T01:38:58;8.30;;;2.65;;
31347;SDS011;21711;49.708;18.568;2024-03-17T01:41:25;17.38;;;2.83;;
31347;SDS011;21711;49.708;18.568;2024-03-17T01:43:51;11.80;;;3.13;;
31347;SDS011;21711;49.708;18.568;2024-03-17T01:46:18;12.95;;;2.90;;
31347;SDS011;21711;49.708;18.568;2024-03-17T01:48:44;7.78;;;3.58;;
31347;SDS011;21711;49.708;18.568;2024-03-17T01:51:11;9.20;;;4.15;;
31347;SDS011;21711;49.708;18.568;2024-03-17T01:53:40;9.60;;;2.70;;
31347;SDS011;21711;49.708;18.568;2024-03-17T01:56:09;9.30;;;2.85;;
31347;SDS011;21711;49.708;18.568;2024-03-17T01:58:37;8.25;;;2.83;;
31347;SDS011;21711;49.708;18.568;2024-03-17T02:01:03;10.90;;;3.05;;
31347;SDS011;21711;49.708;18.568;2024-03-17T02:03:30;10.13;;;2.72;;
31347;SDS011;21711;49.708;18.568;2024-03-17T02:05:57;11.60;;;3.30;;
31347;SDS011;21711;49.708;18.568;2024-03-17T02:08:24;6.35;;;2.67;;
31347;SDS011;21711;49.708;18.568;2024-03-17T02:10:54;13.90;;;3.47;;
31347;SDS011;21711;49.708;18.568;2024-03-17T02:13:21;11.55;;;3.15;;
31347;SDS011;21711;49.708;18.568;2024-03-17T02:15:48;9.20;;;3.10;;
31347;SDS011;21711;49.708;18.568;2024-03-17T02:18:14;10.02;;;3.63;;
31347;SDS011;21711;49.708;18.568;2024-03-17T02:20:41;7.15;;;3.15;;
31347;SDS011;21711;49.708;18.568;2024-03-17T02:23:26;12.80;;;3.22;;
31347;SDS011;21711;49.708;18.568;2024-03-17T02:25:53;9.13;;;3.50;;
31347;SDS011;21711;49.708;18.568;2024-03-17T02:28:19;5.32;;;2.72;;
31347;SDS011;21711;49.708;18.568;2024-03-17T02:30:46;7.63;;;3.28;;
31347;SDS011;21711;49.708;18.568;2024-03-17T02:33:12;16.90;;;3.60;;
31347;SDS011;21711;49.708;18.568;2024-03-17T02:35:38;7.90;;;3.17;;
31347;SDS011;21711;49.708;18.568;2024-03-17T02:38:05;12.20;;;3.15;;
31347;SDS011;21711;49.708;18.568;2024-03-17T02:40:33;7.55;;;2.78;;
31347;SDS011;21711;49.708;18.568;2024-03-17T02:42:59;6.72;;;3.05;;
31347;SDS011;21711;49.708;18.568;2024-03-17T02:45:26;10.63;;;3.17;;
31347;SDS011;21711;49.708;18.568;2024-03-17T02:47:52;10.48;;;3.67;;
31347;SDS011;21711;49.708;18.568;2024-03-17T02:50:18;12.88;;;3.67;;
31347;SDS011;21711;49.708;18.568;2024-03-17T02:52:44;12.00;;;4.07;;
31347;SDS011;21711;49.708;18.568;2024-03-17T02:55:11;9.65;;;3.03;;
31347;SDS011;21711;49.708;18.568;2024-03-17T02:57:37;11.23;;;3.10;;
31347;SDS011;21711;49.708;18.568;2024-03-17T03:00:04;9.38;;;3.22;;
31347;SDS011;21711;49.708;18.568;2024-03-17T03:02:34;10.05;;;3.95;;
31347;SDS011;21711;49.708;18.568;2024-03-17T03:05:00;8.77;;;3.67;;
31347;SDS011;21711;49.708;18.568;2024-03-17T03:07:26;7.22;;;3.40;;
31347;SDS011;21711;49.708;18.568;2024-03-17T03:09:53;8.38;;;3.35;;
31347;SDS011;21711;49.708;18.568;2024-03-17T03:12:19;8.65;;;2.83;;
31347;SDS011;21711;49.708;18.568;2024-03-17T03:14:46;10.27;;;3.13;;
31347;SDS011;21711;49.708;18.568;2024-03-17T03:17:12;8.85;;;3.58;;
31347;SDS011;21711;49.708;18.568;2024-03-17T03:19:39;7.47;;;3.42;;
31347;SDS011;21711;49.708;18.568;2024-03-17T03:22:05;15.80;;;3.55;;
31347;SDS011;21711;49.708;18.568;2024-03-17T03:24:31;7.30;;;3.15;;
31347;SDS011;21711;49.708;18.568;2024-03-17T03:26:58;12.70;;;3.50;;
31347;SDS011;21711;49.708;18.568;2024-03-17T03:29:24;14.93;;;3.08;;
31347;SDS011;21711;49.708;18.568;2024-03-17T03:31:50;11.55;;;3.15;;
31347;SDS011;21711;49.708;18.568;2024-03-17T03:34:16;9.75;;;3.78;;
31347;SDS011;21711;49.708;18.568;2024-03-17T03:36:43;4.75;;;2.55;;
31347;SDS011;21711;49.708;18.568;2024-03-17T03:39:09;6.85;;;2.70;;
31347;SDS011;21711;49.708;18.568;2024-03-17T03:41:37;8.65;;;2.10;;
31347;SDS011;21711;49.708;18.568;2024-03-17T03:44:04;8.35;;;2.40;;
31347;SDS011;21711;49.708;18.568;2024-03-17T03:46:30;9.30;;;3.00;;
31347;SDS011;21711;49.708;18.568;2024-03-17T03:48:57;12.95;;;3.13;;
31347;SDS011;21711;49.708;18.568;2024-03-17T03:51:23;10.25;;;3.17;;
31347;SDS011;21711;49.708;18.568;2024-03-17T03:53:50;9.02;;;2.92;;
31347;SDS011;21711;49.708;18.568;2024-03-17T03:56:17;11.70;;;2.85;;
31347;SDS011;21711;49.708;18.568;2024-03-17T03:58:46;15.23;;;2.28;;
31347;SDS011;21711;49.708;18.568;2024-03-17T04:01:12;12.18;;;2.47;;
31347;SDS011;21711;49.708;18.568;2024-03-17T04:03:46;7.47;;;2.15;;
31347;SDS011;21711;49.708;18.568;2024-03-17T04:06:14;9.80;;;2.03;;
31347;SDS011;21711;49.708;18.568;2024-03-17T04:08:41;11.10;;;2.63;;
31347;SDS011;21711;49.708;18.568;2024-03-17T04:11:08;8.05;;;2.20;;
31347;SDS011;21711;49.708;18.568;2024-03-17T04:13:35;11.10;;;2.25;;
31347;SDS011;21711;49.708;18.568;2024-03-17T04:16:04;4.93;;;2.20;;
31347;SDS011;21711;49.708;18.568;2024-03-17T04:18:33;9.85;;;2.20;;
31347;SDS011;21711;49.708;18.568;2024-03-17T04:21:04;7.82;;;2.20;;
31347;SDS011;21711;49.708;18.568;2024-03-17T04:23:34;5.45;;;1.95;;
31347;SDS011;21711;49.708;18.568;2024-03-17T04:26:01;7.90;;;2.80;;
31347;SDS011;21711;49.708;18.568;2024-03-17T04:28:29;5.35;;;2.05;;
31347;SDS011;21711;49.708;18.568;2024-03-17T04:31:02;7.78;;;2.03;;
31347;SDS011;21711;49.708;18.568;2024-03-17T04:33:33;8.85;;;1.88;;
31347;SDS011;21711;49.708;18.568;2024-03-17T04:36:00;7.30;;;2.30;;
31347;SDS011;21711;49.708;18.568;2024-03-17T04:38:28;10.82;;;1.85;;
31347;SDS011;21711;49.708;18.568;2024-03-17T04:40:54;8.32;;;2.03;;
31347;SDS011;21711;49.708;18.568;2024-03-17T04:43:30;8.57;;;2.10;;
31347;SDS011;21711;49.708;18.568;2024-03-17T04:46:01;7.75;;;2.05;;
31347;SDS011;21711;49.708;18.568;2024-03-17T04:48:30;5.35;;;1.65;;
31347;SDS011;21711;49.708;18.568;2024-03-17T04:50:58;8.77;;;1.90;;
31347;SDS011;21711;49.708;18.568;2024-03-17T04:53:26;8.60;;;1.80;;
31347;SDS011;21711;49.708;18.568;2024-03-17T04:55:59;6.07;;;2.10;;
31347;SDS011;21711;49.708;18.568;2024-03-17T04:58:32;7.72;;;1.40;;
31347;SDS011;21711;49.708;18.568;2024-03-17T05:01:05;6.45;;;1.77;;
31347;SDS011;21711;49.708;18.568;2024-03-17T05:03:33;8.10;;;2.00;;
31347;SDS011;21711;49.708;18.568;2024-03-17T05:06:00;7.65;;;2.03;;
31347;SDS011;21711;49.708;18.568;2024-03-17T05:08:28;6.47;;;1.65;;
31347;SDS011;21711;49.708;18.568;2024-03-17T05:10:59;7.53;;;2.10;;
31347;SDS011;21711;49.708;18.568;2024-03-17T05:13:33;7.40;;;2.05;;
31347;SDS011;21711;49.708;18.568;2024-03-17T05:16:01;10.55;;;2.78;;
31347;SDS011;21711;49.708;18.568;2024-03-17T05:18:31;5.90;;;1.83;;
31347;SDS011;21711;49.708;18.568;2024-03-17T05:21:04;7.55;;;2.15;;
31347;SDS011;21711;49.708;18.568;2024-03-17T05:23:36;4.47;;;1.42;;
31347;SDS011;21711;49.708;18.568;2024-03-17T05:26:03;6.75;;;1.63;;
31347;SDS011;21711;49.708;18.568;2024-03-17T05:28:30;8.02;;;1.80;;
31347;SDS011;21711;49.708;18.568;2024-03-17T05:30:56;5.47;;;1.50;;
31347;SDS011;21711;49.708;18.568;2024-03-17T05:33:23;22.23;;;2.45;;
31347;SDS011;21711;49.708;18.568;2024-03-17T05:35:55;7.47;;;1.83;;
31347;SDS011;21711;49.708;18.568;2024-03-17T05:38:24;7.97;;;1.55;;
31347;SDS011;21711;49.708;18.568;2024-03-17T05:40:59;7.65;;;2.15;;
31347;SDS011;21711;49.708;18.568;2024-03-17T05:43:28;5.63;;;1.80;;
31347;SDS011;21711;49.708;18.568;2024-03-17T05:45:59;10.57;;;1.55;;
31347;SDS011;21711;49.708;18.568;2024-03-17T05:48:26;8.15;;;1.70;;
31347;SDS011;21711;49.708;18.568;2024-03-17T05:50:53;7.25;;;1.58;;
31347;SDS011;21711;49.708;18.568;2024-03-17T05:53:20;11.65;;;2.67;;
31347;SDS011;21711;49.708;18.568;2024-03-17T05:55:49;6.57;;;1.17;;
31347;SDS011;21711;49.708;18.568;2024-03-17T05:58:16;7.60;;;1.77;;
31347;SDS011;21711;49.708;18.568;2024-03-17T06:00:42;7.47;;;1.70;;
31347;SDS011;21711;49.708;18.568;2024-03-17T06:03:09;5.63;;;1.58;;
31347;SDS011;21711;49.708;18.568;2024-03-17T06:05:36;6.80;;;1.20;;
31347;SDS011;21711;49.708;18.568;2024-03-17T06:08:08;7.95;;;1.23;;
31347;SDS011;21711;49.708;18.568;2024-03-17T06:10:37;5.63;;;1.33;;
31347;SDS011;21711;49.708;18.568;2024-03-17T06:13:08;5.35;;;1.40;;
31347;SDS011;21711;49.708;18.568;2024-03-17T06:15:38;17.38;;;1.83;;
31347;SDS011;21711;49.708;18.568;2024-03-17T06:18:05;7.50;;;1.20;;
31347;SDS011;21711;49.708;18.568;2024-03-17T06:20:39;8.75;;;1.13;;
31347;SDS011;21711;49.708;18.568;2024-03-17T06:23:10;5.82;;;1.45;;
31347;SDS011;21711;49.708;18.568;2024-03-17T06:25:41;9.05;;;1.30;;
31347;SDS011;21711;49.708;18.568;2024-03-17T06:28:09;6.05;;;1.30;;
31347;SDS011;21711;49.708;18.568;2024-03-17T06:33:06;6.47;;;1.20;;
31347;SDS011;21711;49.708;18.568;2024-03-17T06:35:36;9.02;;;1.20;;
31347;SDS011;21711;49.708;18.568;2024-03-17T06:38:03;5.18;;;1.27;;
31347;SDS011;21711;49.708;18.568;2024-03-17T06:40:30;7.88;;;1.10;;
31347;SDS011;21711;49.708;18.568;2024-03-17T06:42:56;6.65;;;1.20;;
31347;SDS011;21711;49.708;18.568;2024-03-17T06:45:23;13.07;;;1.65;;
31347;SDS011;21711;49.708;18.568;2024-03-17T06:47:49;5.28;;;0.80;;
31347;SDS011;21711;49.708;18.568;2024-03-17T06:50:16;5.88;;;1.30;;
31347;SDS011;21711;49.708;18.568;2024-03-17T06:52:42;6.65;;;1.38;;
31347;SDS011;21711;49.708;18.568;2024-03-17T06:55:08;6.72;;;1.80;;
31347;SDS011;21711;49.708;18.568;2024-03-17T06:57:35;5.88;;;1.40;;
31347;SDS011;21711;49.708;18.568;2024-03-17T07:00:02;5.53;;;1.50;;
31347;SDS011;21711;49.708;18.568;2024-03-17T07:02:31;4.85;;;1.45;;
31347;SDS011;21711;49.708;18.568;2024-03-17T07:04:58;5.18;;;1.30;;
31347;SDS011;21711;49.708;18.568;2024-03-17T07:07:27;7.20;;;1.38;;
31347;SDS011;21711;49.708;18.568;2024-03-17T07:09:53;3.55;;;1.30;;
31347;SDS011;21711;49.708;18.568;2024-03-17T07:12:20;3.88;;;0.90;;
31347;SDS011;21711;49.708;18.568;2024-03-17T07:14:49;5.95;;;1.10;;
31347;SDS011;21711;49.708;18.568;2024-03-17T07:17:17;2.72;;;1.08;;
31347;SDS011;21711;49.708;18.568;2024-03-17T07:19:43;6.97;;;1.27;;
31347;SDS011;21711;49.708;18.568;2024-03-17T07:22:10;3.65;;;1.17;;
31347;SDS011;21711;49.708;18.568;2024-03-17T07:24:36;3.58;;;1.23;;
31347;SDS011;21711;49.708;18.568;2024-03-17T07:27:03;9.70;;;1.38;;
31347;SDS011;21711;49.708;18.568;2024-03-17T07:29:29;6.90;;;1.33;;
31347;SDS011;21711;49.708;18.568;2024-03-17T07:31:55;6.07;;;1.00;;
31347;SDS011;21711;49.708;18.568;2024-03-17T07:34:22;2.90;;;0.90;;
31347;SDS011;21711;49.708;18.568;2024-03-17T07:36:48;7.45;;;1.15;;
31347;SDS011;21711;49.708;18.568;2024-03-17T07:39:14;3.47;;;1.15;;
31347;SDS011;21711;49.708;18.568;2024-03-17T07:41:41;6.45;;;1.30;;
31347;SDS011;21711;49.708;18.568;2024-03-17T07:44:08;5.28;;;1.77;;
31347;SDS011;21711;49.708;18.568;2024-03-17T07:46:34;7.22;;;1.60;;
31347;SDS011;21711;49.708;18.568;2024-03-17T07:49:00;4.75;;;1.10;;
31347;SDS011;21711;49.708;18.568;2024-03-17T07:51:27;4.75;;;1.38;;
31347;SDS011;21711;49.708;18.568;2024-03-17T07:53:53;9.18;;;1.67;;
31347;SDS011;21711;49.708;18.568;2024-03-17T07:56:19;2.63;;;1.25;;
31347;SDS011;21711;49.708;18.568;2024-03-17T07:58:46;6.78;;;1.33;;
31347;SDS011;21711;49.708;18.568;2024-03-17T08:01:16;5.40;;;1.20;;
31347;SDS011;21711;49.708;18.568;2024-03-17T08:03:46;8.13;;;1.40;;
31347;SDS011;21711;49.708;18.568;2024-03-17T08:06:21;5.07;;;1.35;;
31347;SDS011;21711;49.708;18.568;2024-03-17T08:08:48;5.32;;;1.50;;
31347;SDS011;21711;49.708;18.568;2024-03-17T08:11:14;4.10;;;1.20;;
31347;SDS011;21711;49.708;18.568;2024-03-17T08:13:40;5.13;;;1.20;;
31347;SDS011;21711;49.708;18.568;2024-03-17T08:16:07;4.57;;;1.10;;
31347;SDS011;21711;49.708;18.568;2024-03-17T08:18:36;3.83;;;1.00;;
31347;SDS011;21711;49.708;18.568;2024-03-17T08:21:03;2.63;;;1.00;;
31347;SDS011;21711;49.708;18.568;2024-03-17T08:23:34;3.10;;;0.93;;
31347;SDS011;21711;49.708;18.568;2024-03-17T08:26:04;3.15;;;1.08;;
31347;SDS011;21711;49.708;18.568;2024-03-17T08:28:31;4.78;;;1.10;;
31347;SDS011;21711;49.708;18.568;2024-03-17T08:30:58;2.97;;;0.77;;
31347;SDS011;21711;49.708;18.568;2024-03-17T08:33:27;3.25;;;1.20;;
31347;SDS011;21711;49.708;18.568;2024-03-17T08:35:58;5.22;;;1.08;;
31347;SDS011;21711;49.708;18.568;2024-03-17T08:38:30;3.58;;;1.40;;
31347;SDS011;21711;49.708;18.568;2024-03-17T08:41:01;3.88;;;0.90;;
31347;SDS011;21711;49.708;18.568;2024-03-17T08:43:32;3.70;;;0.98;;
31347;SDS011;21711;49.708;18.568;2024-03-17T08:48:29;3.10;;;1.00;;
31347;SDS011;21711;49.708;18.568;2024-03-17T08:50:58;6.95;;;1.00;;
31347;SDS011;21711;49.708;18.568;2024-03-17T08:53:26;4.03;;;1.02;;
31347;SDS011;21711;49.708;18.568;2024-03-17T08:55:53;2.50;;;1.00;;
31347;SDS011;21711;49.708;18.568;2024-03-17T08:58:21;4.30;;;0.90;;
31347;SDS011;21711;49.708;18.568;2024-03-17T09:00:47;3.67;;;1.27;;
31347;SDS011;21711;49.708;18.568;2024-03-17T09:03:14;2.65;;;0.70;;
31347;SDS011;21711;49.708;18.568;2024-03-17T09:05:42;3.42;;;0.93;;
31347;SDS011;21711;49.708;18.568;2024-03-17T09:08:18;5.68;;;0.75;;
31347;SDS011;21711;49.708;18.568;2024-03-17T09:10:47;3.28;;;0.93;;
31347;SDS011;21711;49.708;18.568;2024-03-17T09:13:16;4.53;;;0.93;;
31347;SDS011;21711;49.708;18.568;2024-03-17T09:15:53;3.45;;;0.68;;
31347;SDS011;21711;49.708;18.568;2024-03-17T09:18:27;4.35;;;1.13;;
31347;SDS011;21711;49.708;18.568;2024-03-17T09:21:04;3.20;;;1.02;;
31347;SDS011;21711;49.708;18.568;2024-03-17T09:23:39;2.47;;;0.80;;
31347;SDS011;21711;49.708;18.568;2024-03-17T09:26:07;2.03;;;0.80;;
31347;SDS011;21711;49.708;18.568;2024-03-17T09:28:37;2.17;;;0.70;;
31347;SDS011;21711;49.708;18.568;2024-03-17T09:31:03;6.97;;;1.25;;
31347;SDS011;21711;49.708;18.568;2024-03-17T09:33:32;2.80;;;1.00;;
31347;SDS011;21711;49.708;18.568;2024-03-17T09:36:04;3.65;;;0.93;;
31347;SDS011;21711;49.708;18.568;2024-03-17T09:38:39;3.42;;;1.00;;
31347;SDS011;21711;49.708;18.568;2024-03-17T09:41:06;2.10;;;0.90;;
31347;SDS011;21711;49.708;18.568;2024-03-17T09:43:34;3.80;;;1.08;;
31347;SDS011;21711;49.708;18.568;2024-03-17T09:46:02;2.60;;;1.15;;
31347;SDS011;21711;49.708;18.568;2024-03-17T09:48:29;4.97;;;1.20;;
31347;SDS011;21711;49.708;18.568;2024-03-17T09:50:56;2.97;;;1.55;;
31347;SDS011;21711;49.708;18.568;2024-03-17T09:53:29;5.22;;;0.85;;
31347;SDS011;21711;49.708;18.568;2024-03-17T09:56:10;4.00;;;0.93;;
31347;SDS011;21711;49.708;18.568;2024-03-17T09:58:40;2.08;;;1.10;;
31347;SDS011;21711;49.708;18.568;2024-03-17T10:01:18;3.90;;;1.52;;
31347;SDS011;21711;49.708;18.568;2024-03-17T10:06:29;3.75;;;0.77;;
31347;SDS011;21711;49.708;18.568;2024-03-17T10:08:57;5.07;;;1.00;;
31347;SDS011;21711;49.708;18.568;2024-03-17T10:11:33;4.63;;;0.85;;
31347;SDS011;21711;49.708;18.568;2024-03-17T10:14:03;3.20;;;0.73;;
31347;SDS011;21711;49.708;18.568;2024-03-17T10:16:37;3.85;;;0.80;;
31347;SDS011;21711;49.708;18.568;2024-03-17T10:21:58;3.15;;;0.80;;
31347;SDS011;21711;49.708;18.568;2024-03-17T10:24:27;3.72;;;1.25;;
31347;SDS011;21711;49.708;18.568;2024-03-17T10:26:54;2.80;;;0.70;;
31347;SDS011;21711;49.708;18.568;2024-03-17T10:29:30;4.68;;;1.35;;
31347;SDS011;21711;49.708;18.568;2024-03-17T10:31:58;2.50;;;1.00;;
31347;SDS011;21711;49.708;18.568;2024-03-17T10:34:41;2.70;;;0.82;;
31347;SDS011;21711;49.708;18.568;2024-03-17T10:39:42;2.95;;;0.75;;
31347;SDS011;21711;49.708;18.568;2024-03-17T10:42:10;2.25;;;0.75;;
31347;SDS011;21711;49.708;18.568;2024-03-17T10:44:40;2.35;;;0.80;;
31347;SDS011;21711;49.708;18.568;2024-03-17T10:47:20;3.05;;;1.20;;
31347;SDS011;21711;49.708;18.568;2024-03-17T10:49:52;2.65;;;0.77;;
31347;SDS011;21711;49.708;18.568;2024-03-17T10:52:22;2.80;;;0.73;;
31347;SDS011;21711;49.708;18.568;2024-03-17T10:54:52;5.80;;;0.85;;
31347;SDS011;21711;49.708;18.568;2024-03-17T10:57:36;1.20;;;0.55;;
31347;SDS011;21711;49.708;18.568;2024-03-17T11:00:23;2.60;;;0.77;;
31347;SDS011;21711;49.708;18.568;2024-03-17T11:02:55;5.72;;;0.70;;
31347;SDS011;21711;49.708;18.568;2024-03-17T11:05:22;2.75;;;0.63;;
31347;SDS011;21711;49.708;18.568;2024-03-17T11:07:55;2.83;;;0.52;;
31347;SDS011;21711;49.708;18.568;2024-03-17T11:10:36;2.00;;;0.70;;
31347;SDS011;21711;49.708;18.568;2024-03-17T11:13:03;2.30;;;1.00;;
31347;SDS011;21711;49.708;18.568;2024-03-17T11:20:41;3.10;;;0.70;;
31347;SDS011;21711;49.708;18.568;2024-03-17T11:23:29;3.55;;;1.05;;
31347;SDS011;21711;49.708;18.568;2024-03-17T11:25:57;2.97;;;1.08;;
31347;SDS011;21711;49.708;18.568;2024-03-17T11:34:36;7.68;;;1.00;;
31347;SDS011;21711;49.708;18.568;2024-03-17T11:37:06;2.78;;;1.10;;
31347;SDS011;21711;49.708;18.568;2024-03-17T11:39:54;2.08;;;0.90;;
31347;SDS011;21711;49.708;18.568;2024-03-17T11:42:24;5.82;;;1.17;;
31347;SDS011;21711;49.708;18.568;2024-03-17T11:44:56;2.28;;;0.70;;
31347;SDS011;21711;49.708;18.568;2024-03-17T11:47:41;2.30;;;1.20;;
31347;SDS011;21711;49.708;18.568;2024-03-17T11:50:08;2.35;;;0.93;;
31347;SDS011;21711;49.708;18.568;2024-03-17T11:52:38;4.53;;;1.35;;
31347;SDS011;21711;49.708;18.568;2024-03-17T11:55:14;3.20;;;0.70;;
31347;SDS011;21711;49.708;18.568;2024-03-17T11:57:43;2.67;;;0.90;;
31347;SDS011;21711;49.708;18.568;2024-03-17T12:00:21;2.95;;;0.90;;
31347;SDS011;21711;49.708;18.568;2024-03-17T12:02:49;2.85;;;0.57;;
31347;SDS011;21711;49.708;18.568;2024-03-17T12:05:16;4.13;;;0.70;;
31347;SDS011;21711;49.708;18.568;2024-03-17T12:07:43;3.33;;;1.00;;
31347;SDS011;21711;49.708;18.568;2024-03-17T12:10:12;2.53;;;1.15;;
31347;SDS011;21711;49.708;18.568;2024-03-17T12:12:46;2.35;;;0.70;;
31347;SDS011;21711;49.708;18.568;2024-03-17T12:15:18;3.10;;;1.00;;
31347;SDS011;21711;49.708;18.568;2024-03-17T12:17:51;7.50;;;1.17;;
31347;SDS011;21711;49.708;18.568;2024-03-17T12:20:20;1.88;;;0.82;;
31347;SDS011;21711;49.708;18.568;2024-03-17T12:22:47;8.50;;;1.63;;
31347;SDS011;21711;49.708;18.568;2024-03-17T12:25:16;5.50;;;1.08;;
31347;SDS011;21711;49.708;18.568;2024-03-17T12:27:45;5.03;;;0.70;;
31347;SDS011;21711;49.708;18.568;2024-03-17T12:30:14;4.43;;;1.02;;
31347;SDS011;21711;49.708;18.568;2024-03-17T12:32:42;1.13;;;0.60;;
31347;SDS011;21711;49.708;18.568;2024-03-17T12:35:14;2.70;;;0.60;;
31347;SDS011;21711;49.708;18.568;2024-03-17T12:37:43;2.75;;;0.80;;
31347;SDS011;21711;49.708;18.568;2024-03-17T12:40:19;3.78;;;1.10;;
31347;SDS011;21711;49.708;18.568;2024-03-17T12:42:49;4.25;;;1.30;;
31347;SDS011;21711;49.708;18.568;2024-03-17T12:45:20;3.78;;;1.02;;
31347;SDS011;21711;49.708;18.568;2024-03-17T12:47:48;5.07;;;0.80;;
31347;SDS011;21711;49.708;18.568;2024-03-17T12:50:16;2.17;;;1.00;;
31347;SDS011;21711;49.708;18.568;2024-03-17T12:52:53;2.20;;;0.82;;
31347;SDS011;21711;49.708;18.568;2024-03-17T12:55:21;3.47;;;1.08;;
31347;SDS011;21711;49.708;18.568;2024-03-17T12:58:07;3.53;;;0.90;;
31347;SDS011;21711;49.708;18.568;2024-03-17T13:01:01;4.32;;;0.80;;
31347;SDS011;21711;49.708;18.568;2024-03-17T13:03:33;4.03;;;1.08;;
31347;SDS011;21711;49.708;18.568;2024-03-17T13:06:01;2.30;;;0.80;;
31347;SDS011;21711;49.708;18.568;2024-03-17T13:08:32;6.15;;;0.80;;
31347;SDS011;21711;49.708;18.568;2024-03-17T13:10:59;2.85;;;1.02;;
31347;SDS011;21711;49.708;18.568;2024-03-17T13:13:26;4.13;;;0.90;;
31347;SDS011;21711;49.708;18.568;2024-03-17T13:15:53;3.97;;;1.00;;
31347;SDS011;21711;49.708;18.568;2024-03-17T13:18:20;4.20;;;1.48;;
31347;SDS011;21711;49.708;18.568;2024-03-17T13:20:47;3.83;;;1.02;;
31347;SDS011;21711;49.708;18.568;2024-03-17T13:23:18;2.67;;;0.70;;
31347;SDS011;21711;49.708;18.568;2024-03-17T13:25:47;4.80;;;0.98;;
31347;SDS011;21711;49.708;18.568;2024-03-17T13:28:13;2.42;;;0.60;;
31347;SDS011;21711;49.708;18.568;2024-03-17T13:30:40;2.45;;;0.80;;
31347;SDS011;21711;49.708;18.568;2024-03-17T13:33:07;4.03;;;1.10;;
31347;SDS011;21711;49.708;18.568;2024-03-17T13:35:34;5.97;;;0.68;;
31347;SDS011;21711;49.708;18.568;2024-03-17T13:38:08;3.22;;;0.70;;
31347;SDS011;21711;49.708;18.568;2024-03-17T13:40:38;2.95;;;0.88;;
31347;SDS011;21711;49.708;18.568;2024-03-17T13:43:06;4.20;;;0.95;;
31347;SDS011;21711;49.708;18.568;2024-03-17T13:45:38;4.75;;;1.20;;
31347;SDS011;21711;49.708;18.568;2024-03-17T13:48:07;3.95;;;1.00;;
31347;SDS011;21711;49.708;18.568;2024-03-17T13:50:39;5.32;;;1.10;;
31347;SDS011;21711;49.708;18.568;2024-03-17T13:53:10;5.40;;;1.38;;
31347;SDS011;21711;49.708;18.568;2024-03-17T13:55:36;2.55;;;0.90;;
31347;SDS011;21711;49.708;18.568;2024-03-17T13:58:03;3.97;;;0.95;;
31347;SDS011;21711;49.708;18.568;2024-03-17T14:00:30;2.60;;;0.70;;
31347;SDS011;21711;49.708;18.568;2024-03-17T14:02:59;3.57;;;0.60;;
31347;SDS011;21711;49.708;18.568;2024-03-17T14:05:26;2.88;;;0.60;;
31347;SDS011;21711;49.708;18.568;2024-03-17T14:07:53;3.72;;;1.10;;
31347;SDS011;21711;49.708;18.568;2024-03-17T14:10:21;3.13;;;1.20;;
31347;SDS011;21711;49.708;18.568;2024-03-17T14:12:49;2.67;;;0.68;;
31347;SDS011;21711;49.708;18.568;2024-03-17T14:15:16;4.50;;;0.90;;
31347;SDS011;21711;49.708;18.568;2024-03-17T14:17:43;1.42;;;0.68;;
31347;SDS011;21711;49.708;18.568;2024-03-17T14:20:12;6.78;;;1.10;;
31347;SDS011;21711;49.708;18.568;2024-03-17T14:22:40;1.85;;;0.63;;
31347;SDS011;21711;49.708;18.568;2024-03-17T14:25:15;5.65;;;0.98;;
31347;SDS011;21711;49.708;18.568;2024-03-17T14:27:47;2.00;;;0.60;;
31347;SDS011;21711;49.708;18.568;2024-03-17T14:30:17;2.97;;;0.95;;
31347;SDS011;21711;49.708;18.568;2024-03-17T14:32:45;4.78;;;1.30;;
31347;SDS011;21711;49.708;18.568;2024-03-17T14:35:13;7.97;;;2.47;;
31347;SDS011;21711;49.708;18.568;2024-03-17T14:37:46;4.93;;;1.80;;
31347;SDS011;21711;49.708;18.568;2024-03-17T14:40:17;7.57;;;1.50;;
31347;SDS011;21711;49.708;18.568;2024-03-17T14:42:52;4.20;;;1.23;;
31347;SDS011;21711;49.708;18.568;2024-03-17T14:45:19;6.17;;;1.17;;
31347;SDS011;21711;49.708;18.568;2024-03-17T14:47:46;1.30;;;0.70;;
31347;SDS011;21711;49.708;18.568;2024-03-17T14:50:12;1.77;;;0.80;;
31347;SDS011;21711;49.708;18.568;2024-03-17T14:52:42;3.70;;;1.00;;
31347;SDS011;21711;49.708;18.568;2024-03-17T14:55:11;3.85;;;1.00;;
31347;SDS011;21711;49.708;18.568;2024-03-17T14:57:38;3.50;;;1.20;;
31347;SDS011;21711;49.708;18.568;2024-03-17T15:00:06;1.88;;;0.77;;
31347;SDS011;21711;49.708;18.568;2024-03-17T15:02:46;3.15;;;0.70;;
31347;SDS011;21711;49.708;18.568;2024-03-17T15:05:14;2.60;;;0.85;;
31347;SDS011;21711;49.708;18.568;2024-03-17T15:07:42;7.78;;;0.95;;
31347;SDS011;21711;49.708;18.568;2024-03-17T15:10:08;3.17;;;0.95;;